Time;durP1;ratioP1;P1;durP2;ratioP2;P2;SDS_P1;SDS_P2;PMS_P1;PMS_P2;Temp;Humidity;BMP_temperature;BMP_pressure;BME280_temperature;BME280_humidity;BME280_pressure;Samples;Min_cycle;Max_cycle;Signal;HPM_P1;HPM_P2
2023/08/31 00:00:04;;;;;;;8.40;3.38;;;14.90;99.90;;;;;;2483544;23;19996;-72
2023/08/31 00:01:05;;;;;;;8.55;3.42;;;14.90;99.90;;;;;;2494993;23;20022;-72
2023/08/31 00:02:06;;;;;;;5.70;3.22;;;14.90;99.90;;;;;;2494555;23;20010;-72
2023/08/31 00:03:06;;;;;;;4.95;3.15;;;14.90;99.90;;;;;;2495046;23;20011;-72
2023/08/31 00:04:14;;;;;;;5.30;3.15;;;14.90;99.90;;;;;;2494908;23;20006;-72
2023/08/31 00:05:14;;;;;;;8.07;3.22;;;14.90;99.90;;;;;;2495623;23;20091;-72
2023/08/31 00:06:15;;;;;;;6.05;2.83;;;14.90;99.90;;;;;;2494146;23;20008;-72
2023/08/31 00:07:16;;;;;;;7.78;3.38;;;14.90;99.90;;;;;;2494444;23;20007;-72
2023/08/31 00:08:17;;;;;;;4.28;2.65;;;15.00;99.90;;;;;;2493569;23;20049;-72
2023/08/31 00:09:18;;;;;;;7.05;3.20;;;15.00;99.90;;;;;;2493902;23;20151;-72
2023/08/31 00:10:19;;;;;;;5.40;3.08;;;15.00;99.90;;;;;;2495321;23;20344;-72
2023/08/31 00:11:20;;;;;;;7.55;3.05;;;15.00;99.90;;;;;;2495850;23;20012;-72
2023/08/31 00:12:22;;;;;;;6.80;3.25;;;15.00;99.90;;;;;;2493722;23;20011;-72
2023/08/31 00:13:22;;;;;;;6.85;3.13;;;15.00;99.90;;;;;;2495720;23;20007;-72
2023/08/31 00:14:24;;;;;;;5.20;2.80;;;15.00;99.90;;;;;;2494836;23;20063;-72
2023/08/31 00:15:25;;;;;;;7.38;3.30;;;15.00;99.90;;;;;;2495381;23;20007;-72
2023/08/31 00:16:26;;;;;;;5.60;3.03;;;15.00;99.90;;;;;;2482626;23;20022;-72
2023/08/31 00:17:27;;;;;;;11.57;3.35;;;15.00;99.90;;;;;;2482370;23;20820;-72
2023/08/31 00:18:28;;;;;;;5.20;2.85;;;15.00;99.90;;;;;;2494408;23;20004;-72
2023/08/31 00:19:29;;;;;;;5.40;3.13;;;15.10;99.90;;;;;;2495170;23;20003;-72
2023/08/31 00:20:31;;;;;;;8.75;2.92;;;15.10;99.90;;;;;;2494702;23;20006;-72
2023/08/31 00:21:31;;;;;;;6.78;3.38;;;15.10;99.90;;;;;;2495468;23;20432;-72
2023/08/31 00:22:32;;;;;;;8.93;3.05;;;15.10;99.90;;;;;;2493430;23;20340;-72
2023/08/31 00:23:33;;;;;;;10.02;3.17;;;15.10;99.90;;;;;;2494724;23;20532;-72
2023/08/31 00:24:36;;;;;;;5.43;2.80;;;15.10;99.90;;;;;;2494360;23;20011;-72
2023/08/31 00:25:37;;;;;;;4.55;2.40;;;15.10;99.90;;;;;;2495240;23;20523;-72
2023/08/31 00:26:42;;;;;;;7.65;2.92;;;15.10;99.90;;;;;;2494122;23;20004;-72
2023/08/31 00:27:42;;;;;;;7.60;3.00;;;15.10;99.90;;;;;;2494578;23;20031;-72
2023/08/31 00:28:44;;;;;;;5.53;3.03;;;15.10;99.90;;;;;;2494331;23;20026;-72
2023/08/31 00:29:49;;;;;;;4.30;2.92;;;15.10;99.90;;;;;;2494831;23;20038;-72
2023/08/31 00:30:50;;;;;;;5.75;3.05;;;15.10;99.90;;;;;;2495133;23;20010;-72
2023/08/31 00:31:51;;;;;;;7.05;3.45;;;15.10;99.90;;;;;;2494683;23;20635;-72
2023/08/31 00:32:53;;;;;;;7.72;3.13;;;15.10;99.90;;;;;;2493009;23;20010;-72
2023/08/31 00:33:53;;;;;;;6.90;3.55;;;15.10;99.90;;;;;;2494643;23;20000;-72
2023/08/31 00:34:54;;;;;;;6.68;3.72;;;15.10;99.90;;;;;;2493804;23;20429;-72
2023/08/31 00:35:56;;;;;;;4.93;3.33;;;15.10;99.90;;;;;;2495361;23;20348;-72
2023/08/31 00:36:56;;;;;;;6.75;3.30;;;15.10;99.90;;;;;;2494375;23;19995;-72
2023/08/31 00:37:58;;;;;;;5.90;2.72;;;15.10;99.90;;;;;;2494264;23;20389;-72
2023/08/31 00:39:06;;;;;;;4.75;2.50;;;15.10;99.90;;;;;;2495520;23;20078;-72
2023/08/31 00:40:08;;;;;;;6.55;3.03;;;15.10;99.90;;;;;;2495480;23;20003;-72
2023/08/31 00:41:09;;;;;;;5.45;2.90;;;15.10;99.90;;;;;;2494594;23;19999;-72
2023/08/31 00:42:10;;;;;;;7.47;3.10;;;15.10;99.90;;;;;;2495017;23;20000;-72
2023/08/31 00:43:10;;;;;;;5.18;2.92;;;15.10;99.90;;;;;;2495297;23;20078;-72
2023/08/31 00:44:11;;;;;;;5.80;2.85;;;15.10;99.90;;;;;;2495350;23;20087;-72
2023/08/31 00:45:12;;;;;;;5.53;3.47;;;15.10;99.90;;;;;;2495337;23;20026;-72
2023/08/31 00:46:14;;;;;;;6.00;3.50;;;15.10;99.90;;;;;;2482779;23;20047;-72
2023/08/31 00:47:15;;;;;;;8.18;3.15;;;15.20;99.90;;;;;;2482354;23;20563;-72
2023/08/31 00:48:17;;;;;;;3.58;2.92;;;15.20;99.90;;;;;;2495487;23;20042;-72
2023/08/31 00:49:18;;;;;;;7.35;3.25;;;15.10;99.90;;;;;;2493408;23;20008;-72
2023/08/31 00:50:19;;;;;;;7.93;3.22;;;15.20;99.90;;;;;;2494592;23;20033;-72
2023/08/31 00:51:20;;;;;;;7.30;3.97;;;15.20;99.90;;;;;;2494805;23;20046;-72
2023/08/31 00:52:21;;;;;;;4.38;2.83;;;15.10;99.90;;;;;;2493987;23;20018;-72
2023/08/31 00:53:21;;;;;;;6.97;3.45;;;15.20;99.90;;;;;;2494758;23;20037;-72
2023/08/31 00:54:22;;;;;;;6.07;3.13;;;15.20;99.90;;;;;;2494276;23;20007;-72
2023/08/31 00:55:23;;;;;;;8.40;3.15;;;15.20;99.90;;;;;;2494972;23;20389;-72
2023/08/31 00:56:24;;;;;;;6.15;3.17;;;15.10;99.90;;;;;;2495101;23;20012;-72
2023/08/31 00:57:27;;;;;;;6.22;3.67;;;15.20;99.90;;;;;;2495095;23;20007;-72
2023/08/31 00:58:28;;;;;;;4.38;2.90;;;15.10;99.90;;;;;;2495597;23;20034;-72
2023/08/31 00:59:29;;;;;;;5.97;3.40;;;15.10;99.90;;;;;;2495464;23;20003;-72
2023/08/31 01:01:06;;;;;;;4.10;2.90;;;15.10;99.90;;;;;;2494197;23;20437;-72
2023/08/31 01:02:16;;;;;;;7.13;3.53;;;15.10;99.90;;;;;;2494489;23;20007;-72
2023/08/31 01:04:01;;;;;;;9.35;3.42;;;15.10;99.90;;;;;;2493826;23;20011;-72
2023/08/31 01:05:14;;;;;;;6.32;2.92;;;15.10;99.90;;;;;;2494611;23;20003;-72
2023/08/31 01:06:41;;;;;;;9.63;3.97;;;15.00;99.90;;;;;;2495878;23;20015;-72
2023/08/31 01:07:58;;;;;;;9.15;3.40;;;15.10;99.90;;;;;;2495622;23;20011;-72
2023/08/31 01:09:39;;;;;;;6.70;3.47;;;15.10;99.90;;;;;;2494915;23;20096;-72
2023/08/31 01:11:13;;;;;;;9.82;3.60;;;15.00;99.90;;;;;;2494961;23;20014;-72
2023/08/31 01:12:30;;;;;;;3.55;2.83;;;15.00;99.90;;;;;;2463488;23;20747;-72
2023/08/31 01:13:32;;;;;;;8.20;3.20;;;15.00;99.90;;;;;;2495107;23;20042;-72
2023/08/31 01:14:42;;;;;;;7.00;2.95;;;15.00;99.90;;;;;;2495214;23;20086;-72
2023/08/31 01:15:49;;;;;;;6.68;3.40;;;15.00;99.90;;;;;;2494919;23;20078;-72
2023/08/31 01:16:51;;;;;;;7.60;3.95;;;15.00;99.90;;;;;;2494641;23;20075;-72
2023/08/31 01:17:54;;;;;;;7.20;3.25;;;15.00;99.90;;;;;;2493812;23;20079;-72
2023/08/31 01:18:56;;;;;;;8.80;3.97;;;15.00;99.90;;;;;;2494980;23;20079;-72
2023/08/31 01:20:00;;;;;;;5.35;3.22;;;15.00;99.90;;;;;;2494194;23;20018;-72
2023/08/31 01:21:27;;;;;;;7.93;4.10;;;15.00;99.90;;;;;;2482851;23;20004;-72
2023/08/31 01:22:33;;;;;;;7.57;3.65;;;15.00;99.90;;;;;;2493728;23;20019;-72
2023/08/31 01:23:55;;;;;;;5.35;3.38;;;15.00;99.90;;;;;;2495103;23;20031;-72
2023/08/31 01:24:58;;;;;;;6.22;3.10;;;15.00;99.90;;;;;;2494830;23;20008;-72
2023/08/31 01:25:59;;;;;;;6.50;3.72;;;14.90;99.90;;;;;;2495312;23;20082;-72
2023/08/31 01:27:00;;;;;;;9.60;3.85;;;14.90;99.90;;;;;;2495181;23;20011;-72
2023/08/31 01:28:01;;;;;;;5.93;3.30;;;15.00;99.90;;;;;;2481821;23;20015;-72
2023/08/31 01:29:02;;;;;;;12.25;3.47;;;15.00;99.90;;;;;;2484825;23;20630;-72
2023/08/31 01:30:04;;;;;;;5.65;3.78;;;15.00;99.90;;;;;;2496984;23;20014;-72
2023/08/31 01:31:07;;;;;;;8.20;3.88;;;14.90;99.90;;;;;;2496338;23;20058;-72
2023/08/31 01:32:08;;;;;;;7.75;3.35;;;14.90;99.90;;;;;;2495204;23;19999;-72
2023/08/31 01:33:09;;;;;;;11.15;4.05;;;14.90;99.90;;;;;;2495115;23;20041;-72
2023/08/31 01:34:10;;;;;;;7.50;3.88;;;14.90;99.90;;;;;;2496401;23;20007;-72
2023/08/31 01:35:11;;;;;;;8.52;3.85;;;14.90;99.90;;;;;;2496580;23;20027;-72
2023/08/31 01:36:24;;;;;;;7.55;3.85;;;14.90;99.90;;;;;;2496140;23;20066;-72
2023/08/31 01:37:32;;;;;;;7.93;4.15;;;14.90;99.90;;;;;;2495749;23;20024;-72
2023/08/31 01:38:35;;;;;;;9.30;3.75;;;14.90;99.90;;;;;;2496764;23;20003;-72
2023/08/31 01:39:48;;;;;;;7.43;3.78;;;14.90;99.90;;;;;;2496975;23;20061;-72
2023/08/31 01:40:52;;;;;;;6.35;3.05;;;14.90;99.90;;;;;;2496952;23;20007;-72
2023/08/31 01:41:58;;;;;;;9.20;3.35;;;14.90;99.90;;;;;;2495835;23;20033;-72
2023/08/31 01:43:01;;;;;;;7.00;4.03;;;14.90;99.90;;;;;;2494472;23;20000;-72
2023/08/31 01:44:02;;;;;;;7.72;3.38;;;14.80;99.90;;;;;;2496682;23;20721;-72
2023/08/31 01:45:04;;;;;;;5.97;3.55;;;14.80;99.90;;;;;;2494957;23;20043;-72
2023/08/31 01:46:05;;;;;;;5.32;3.45;;;14.80;99.90;;;;;;2497384;23;20038;-72
2023/08/31 01:47:06;;;;;;;6.10;3.72;;;14.80;99.90;;;;;;2496486;23;20424;-72
2023/08/31 01:48:07;;;;;;;6.47;3.03;;;14.80;99.90;;;;;;2496322;23;20082;-72
2023/08/31 01:49:10;;;;;;;6.70;3.78;;;14.80;99.90;;;;;;2496686;23;20460;-72
2023/08/31 01:50:11;;;;;;;7.00;3.85;;;14.80;99.90;;;;;;2495610;23;20008;-72
2023/08/31 01:51:12;;;;;;;7.25;4.00;;;14.80;99.90;;;;;;2494180;23;20007;-72
2023/08/31 01:52:13;;;;;;;3.97;2.70;;;14.80;99.90;;;;;;2495948;23;20022;-72
2023/08/31 01:53:13;;;;;;;8.65;3.35;;;14.80;99.90;;;;;;2495898;23;20003;-72
2023/08/31 01:54:14;;;;;;;9.85;4.45;;;14.80;99.90;;;;;;2484360;23;20016;-72
2023/08/31 01:55:15;;;;;;;7.75;3.92;;;14.80;99.90;;;;;;2483619;23;20019;-72
2023/08/31 01:56:16;;;;;;;5.60;4.28;;;14.70;99.90;;;;;;2483701;23;20020;-72
2023/08/31 01:57:17;;;;;;;7.30;3.75;;;14.70;99.90;;;;;;2484834;23;20046;-72
2023/08/31 01:58:18;;;;;;;6.63;4.22;;;14.70;99.90;;;;;;2483752;23;20555;-72
2023/08/31 01:59:18;;;;;;;6.50;3.70;;;14.70;99.90;;;;;;2483649;23;20372;-72
2023/08/31 02:00:19;;;;;;;8.02;3.65;;;14.70;99.90;;;;;;2496826;23;20030;-72
2023/08/31 02:01:20;;;;;;;6.68;3.67;;;14.70;99.90;;;;;;2494627;23;20014;-72
2023/08/31 02:02:21;;;;;;;8.32;3.53;;;14.70;99.90;;;;;;2483221;23;20008;-72
2023/08/31 02:03:21;;;;;;;5.90;3.28;;;14.70;99.90;;;;;;2484238;23;20559;-72
2023/08/31 02:04:22;;;;;;;6.95;4.47;;;14.70;99.90;;;;;;2496474;23;20011;-72
2023/08/31 02:05:22;;;;;;;6.28;3.78;;;14.70;99.90;;;;;;2495910;23;20014;-72
2023/08/31 02:06:23;;;;;;;7.47;4.18;;;14.70;99.90;;;;;;2484400;23;20067;-72
2023/08/31 02:07:23;;;;;;;7.18;4.18;;;14.70;99.90;;;;;;2483686;23;20015;-72
2023/08/31 02:08:24;;;;;;;7.78;3.95;;;14.70;99.90;;;;;;2497617;23;20044;-72
2023/08/31 02:09:24;;;;;;;7.13;4.20;;;14.60;99.90;;;;;;2496868;23;20011;-72
2023/08/31 02:10:27;;;;;;;9.30;4.25;;;14.60;99.90;;;;;;2495693;23;20019;-72
2023/08/31 02:11:27;;;;;;;6.72;4.30;;;14.60;99.90;;;;;;2497411;23;20061;-72
2023/08/31 02:12:28;;;;;;;6.65;3.97;;;14.60;99.90;;;;;;2495752;23;20042;-72
2023/08/31 02:13:30;;;;;;;5.93;4.13;;;14.60;99.90;;;;;;2496061;23;20011;-72
2023/08/31 02:14:30;;;;;;;4.95;4.05;;;14.60;99.90;;;;;;2495973;23;20039;-72
2023/08/31 02:15:31;;;;;;;6.10;4.30;;;14.50;99.90;;;;;;2496527;23;20078;-72
2023/08/31 02:16:32;;;;;;;8.73;4.45;;;14.50;99.90;;;;;;2496266;23;20031;-73
2023/08/31 02:17:34;;;;;;;8.30;4.35;;;14.50;99.90;;;;;;2496702;23;19999;-72
2023/08/31 02:18:34;;;;;;;5.28;3.85;;;14.50;99.90;;;;;;2497606;23;20003;-72
2023/08/31 02:19:35;;;;;;;6.70;3.70;;;14.50;99.90;;;;;;2497926;23;20004;-72
2023/08/31 02:20:35;;;;;;;5.53;3.45;;;14.50;99.90;;;;;;2496224;23;20003;-72
2023/08/31 02:21:36;;;;;;;5.40;3.60;;;14.50;99.90;;;;;;2497799;23;20208;-72
2023/08/31 02:22:36;;;;;;;4.38;3.97;;;14.50;99.90;;;;;;2482710;23;20007;-72
2023/08/31 02:23:37;;;;;;;7.43;4.45;;;14.50;99.90;;;;;;2483605;23;20358;-72
2023/08/31 02:24:38;;;;;;;9.98;5.03;;;14.50;99.90;;;;;;2496050;23;20035;-72
2023/08/31 02:25:38;;;;;;;7.82;4.38;;;14.40;99.90;;;;;;2496531;23;20043;-72
2023/08/31 02:26:39;;;;;;;6.10;4.18;;;14.40;99.90;;;;;;2484436;23;20127;-72
2023/08/31 02:27:39;;;;;;;9.65;4.53;;;14.40;99.90;;;;;;2484886;23;20023;-72
2023/08/31 02:28:40;;;;;;;9.65;4.68;;;14.40;99.90;;;;;;2483547;23;20003;-72
2023/08/31 02:29:40;;;;;;;5.90;4.25;;;14.40;99.90;;;;;;2496718;23;20038;-72
2023/08/31 02:30:44;;;;;;;10.27;4.72;;;14.40;99.90;;;;;;2495607;23;20011;-72
2023/08/31 02:31:45;;;;;;;7.70;3.75;;;14.40;99.90;;;;;;2496923;23;20436;-72
2023/08/31 02:32:45;;;;;;;8.48;4.40;;;14.40;99.90;;;;;;2495524;23;20079;-72
2023/08/31 02:33:47;;;;;;;8.30;5.00;;;14.40;99.90;;;;;;2483750;23;20557;-72
2023/08/31 02:34:47;;;;;;;5.82;4.22;;;14.40;99.90;;;;;;2483238;23;20019;-72
2023/08/31 02:35:48;;;;;;;10.48;4.18;;;14.40;99.90;;;;;;2483395;23;20023;-72
2023/08/31 02:36:49;;;;;;;6.38;3.38;;;14.30;99.90;;;;;;2498037;23;19999;-72
2023/08/31 02:37:49;;;;;;;7.10;3.88;;;14.30;99.90;;;;;;2495442;23;19999;-72
2023/08/31 02:38:50;;;;;;;6.80;3.92;;;14.30;99.90;;;;;;2483813;23;20038;-72
2023/08/31 02:39:50;;;;;;;5.57;3.33;;;14.30;99.90;;;;;;2484287;23;20010;-72
2023/08/31 02:40:51;;;;;;;8.27;3.97;;;14.30;99.90;;;;;;2495927;23;20792;-72
2023/08/31 02:41:51;;;;;;;6.15;3.90;;;14.30;99.90;;;;;;2496102;23;20031;-72
2023/08/31 02:42:52;;;;;;;5.47;3.95;;;14.30;99.90;;;;;;2495731;23;20127;-72
2023/08/31 02:43:53;;;;;;;4.25;3.58;;;14.30;99.90;;;;;;2497177;23;20003;-72
2023/08/31 02:44:53;;;;;;;4.82;3.90;;;14.30;99.90;;;;;;2497209;23;20004;-72
2023/08/31 02:46:01;;;;;;;6.80;4.10;;;14.30;99.90;;;;;;2483695;23;20015;-72
2023/08/31 02:47:02;;;;;;;5.60;4.20;;;14.30;99.90;;;;;;2486489;23;20000;-72
2023/08/31 02:48:03;;;;;;;8.30;4.53;;;14.30;99.90;;;;;;2496949;23;20014;-72
2023/08/31 02:49:04;;;;;;;6.22;4.38;;;14.30;99.90;;;;;;2496811;23;20004;-72
2023/08/31 02:50:05;;;;;;;5.55;4.05;;;14.30;99.90;;;;;;2496340;23;20094;-72
2023/08/31 02:51:06;;;;;;;5.65;4.22;;;14.30;99.90;;;;;;2496167;23;20004;-72
2023/08/31 02:52:06;;;;;;;6.75;4.70;;;14.30;99.90;;;;;;2496930;23;20031;-72
2023/08/31 02:53:07;;;;;;;7.55;4.57;;;14.30;99.90;;;;;;2496435;23;20447;-72
2023/08/31 02:54:07;;;;;;;5.85;4.63;;;14.30;99.90;;;;;;2497615;23;20003;-72
2023/08/31 02:55:08;;;;;;;6.70;4.53;;;14.30;99.90;;;;;;2496686;23;20037;-72
2023/08/31 02:56:09;;;;;;;6.13;4.35;;;14.20;99.90;;;;;;2497105;23;20055;-73
2023/08/31 02:57:09;;;;;;;7.88;3.97;;;14.20;99.90;;;;;;2497175;23;20010;-72
2023/08/31 02:58:10;;;;;;;8.07;5.18;;;14.20;99.90;;;;;;2484563;23;20004;-72
2023/08/31 02:59:11;;;;;;;7.35;4.72;;;14.30;99.90;;;;;;2485908;23;20447;-72
2023/08/31 03:00:12;;;;;;;5.40;4.70;;;14.20;99.90;;;;;;2496732;23;19999;-72
2023/08/31 03:01:14;;;;;;;6.25;4.85;;;14.20;99.90;;;;;;2498060;23;20336;-72
2023/08/31 03:02:14;;;;;;;7.15;4.57;;;14.20;99.90;;;;;;2495965;23;20003;-72
2023/08/31 03:03:18;;;;;;;7.72;4.63;;;14.20;99.90;;;;;;2496385;23;20082;-71
2023/08/31 03:04:19;;;;;;;5.07;4.55;;;14.20;99.90;;;;;;2496683;23;20007;-72
2023/08/31 03:05:23;;;;;;;5.45;4.43;;;14.20;99.90;;;;;;2497586;23;19999;-72
2023/08/31 03:06:23;;;;;;;5.50;4.38;;;14.20;99.90;;;;;;2495023;23;20008;-72
2023/08/31 03:07:24;;;;;;;8.18;4.70;;;14.20;99.90;;;;;;2496599;23;20007;-72
2023/08/31 03:08:24;;;;;;;5.80;4.43;;;14.20;99.90;;;;;;2495947;23;20463;-72
2023/08/31 03:09:25;;;;;;;8.70;4.40;;;14.20;99.90;;;;;;2496638;23;20011;-72
2023/08/31 03:10:25;;;;;;;5.28;4.78;;;14.20;99.90;;;;;;2495385;23;20007;-71
2023/08/31 03:11:26;;;;;;;9.52;4.90;;;14.20;99.90;;;;;;2496666;23;20003;-72
2023/08/31 03:12:26;;;;;;;4.43;4.03;;;14.10;99.90;;;;;;2497192;23;20730;-71
2023/08/31 03:13:27;;;;;;;6.85;4.43;;;14.10;99.90;;;;;;2497716;23;20090;-72
2023/08/31 03:14:27;;;;;;;5.53;4.22;;;14.10;99.90;;;;;;2495858;23;20455;-71
2023/08/31 03:15:28;;;;;;;6.15;4.07;;;14.10;99.90;;;;;;2497597;23;20039;-71
2023/08/31 03:16:29;;;;;;;6.70;4.60;;;14.10;99.90;;;;;;2497417;23;20022;-72
2023/08/31 03:17:29;;;;;;;5.75;4.47;;;14.10;99.90;;;;;;2497083;23;20014;-71
2023/08/31 03:18:30;;;;;;;6.55;4.97;;;14.10;99.90;;;;;;2496324;23;20348;-72
2023/08/31 03:19:30;;;;;;;6.05;4.68;;;14.10;99.90;;;;;;2496167;23;20014;-72
2023/08/31 03:20:31;;;;;;;5.10;4.15;;;14.10;99.90;;;;;;2497344;23;20034;-72
2023/08/31 03:21:31;;;;;;;6.55;4.32;;;14.10;99.90;;;;;;2496823;23;20031;-72
2023/08/31 03:22:32;;;;;;;5.60;4.40;;;14.10;99.90;;;;;;2496276;23;20003;-72
2023/08/31 03:23:32;;;;;;;4.80;4.40;;;14.10;99.90;;;;;;2483320;23;20047;-72
2023/08/31 03:24:33;;;;;;;6.85;4.30;;;14.10;99.90;;;;;;2484944;23;20027;-72
2023/08/31 03:25:34;;;;;;;6.40;4.40;;;14.10;99.90;;;;;;2496788;23;19996;-72
2023/08/31 03:26:34;;;;;;;9.15;4.65;;;14.10;99.90;;;;;;2496367;23;20090;-71
2023/08/31 03:27:35;;;;;;;5.03;4.07;;;14.10;99.90;;;;;;2497730;23;20011;-71
2023/08/31 03:28:36;;;;;;;5.30;4.65;;;14.10;99.90;;;;;;2496349;23;20360;-71
2023/08/31 03:29:36;;;;;;;6.15;4.03;;;14.10;99.90;;;;;;2484226;23;20044;-71
2023/08/31 03:30:37;;;;;;;6.05;4.35;;;14.10;99.90;;;;;;2485058;23;20011;-72
2023/08/31 03:31:37;;;;;;;7.78;4.70;;;14.10;99.90;;;;;;2484872;23;20004;-72
2023/08/31 03:32:38;;;;;;;6.85;4.80;;;14.10;99.90;;;;;;2495011;23;20003;-72
2023/08/31 03:33:38;;;;;;;4.88;4.15;;;14.10;99.90;;;;;;2497047;23;20481;-72
2023/08/31 03:34:39;;;;;;;5.20;4.70;;;14.10;99.90;;;;;;2497997;23;20007;-72
2023/08/31 03:35:40;;;;;;;6.25;4.28;;;14.10;99.90;;;;;;2497803;23;20014;-72
2023/08/31 03:36:41;;;;;;;6.80;4.25;;;14.10;99.90;;;;;;2485216;23;20015;-72
2023/08/31 03:37:41;;;;;;;6.03;4.65;;;14.10;99.90;;;;;;2484509;23;20068;-72
2023/08/31 03:38:42;;;;;;;5.65;4.70;;;14.10;99.90;;;;;;2496764;23;20011;-71
2023/08/31 03:39:42;;;;;;;7.35;5.15;;;14.10;99.90;;;;;;2496794;23;20035;-72
2023/08/31 03:40:52;;;;;;;8.77;5.88;;;14.10;99.90;;;;;;2496596;23;20003;-72
2023/08/31 03:41:52;;;;;;;7.68;5.43;;;14.10;99.90;;;;;;2497380;23;20126;-72
2023/08/31 03:42:53;;;;;;;6.68;5.40;;;14.10;99.90;;;;;;2496514;23;20007;-72
2023/08/31 03:43:54;;;;;;;5.70;5.07;;;14.10;99.90;;;;;;2496460;23;20083;-72
2023/08/31 03:44:54;;;;;;;6.90;5.13;;;14.10;99.90;;;;;;2496808;23;19999;-71
2023/08/31 03:45:56;;;;;;;6.88;5.72;;;14.10;99.90;;;;;;2495860;23;20492;-72
2023/08/31 03:46:57;;;;;;;9.43;5.97;;;14.10;99.90;;;;;;2498460;23;20008;-71
2023/08/31 03:47:57;;;;;;;6.63;5.68;;;14.10;99.90;;;;;;2496052;23;20082;-71
2023/08/31 03:48:58;;;;;;;7.78;5.65;;;14.10;99.90;;;;;;2496972;23;20307;-72
2023/08/31 03:49:58;;;;;;;6.28;5.07;;;14.10;99.90;;;;;;2496816;23;20090;-72
2023/08/31 03:50:59;;;;;;;7.80;6.45;;;14.10;99.90;;;;;;2497185;23;20480;-71
2023/08/31 03:51:59;;;;;;;7.22;5.30;;;14.10;99.90;;;;;;2497435;23;20003;-71
2023/08/31 03:53:00;;;;;;;7.03;5.55;;;14.10;99.90;;;;;;2496672;23;20333;-72
2023/08/31 03:54:01;;;;;;;6.15;4.80;;;14.10;99.90;;;;;;2497015;23;20031;-71
2023/08/31 03:55:01;;;;;;;6.00;5.47;;;14.10;99.90;;;;;;2484644;23;20341;-72
2023/08/31 03:56:04;;;;;;;8.23;6.40;;;14.10;99.90;;;;;;2484538;23;20007;-71
2023/08/31 03:57:04;;;;;;;5.82;5.28;;;14.10;99.90;;;;;;2497276;23;20066;-72
2023/08/31 03:58:05;;;;;;;7.90;5.78;;;14.00;99.90;;;;;;2495944;23;19999;-71
2023/08/31 03:59:05;;;;;;;8.90;6.88;;;14.10;99.90;;;;;;2496016;23;20031;-72
2023/08/31 04:00:10;;;;;;;8.18;6.68;;;14.10;99.90;;;;;;2485386;23;20570;-72
2023/08/31 04:01:10;;;;;;;6.93;6.25;;;14.00;99.90;;;;;;2485155;23;20025;-72
2023/08/31 04:02:11;;;;;;;8.07;7.15;;;14.00;99.90;;;;;;2496396;23;20011;-72
2023/08/31 04:03:11;;;;;;;7.60;6.38;;;14.00;99.90;;;;;;2484969;23;20092;-72
2023/08/31 04:04:12;;;;;;;8.07;6.80;;;14.00;99.90;;;;;;2485532;23;20079;-72
2023/08/31 04:05:15;;;;;;;8.18;7.10;;;14.00;99.90;;;;;;2497330;23;20110;-72
2023/08/31 04:06:15;;;;;;;6.95;6.00;;;14.00;99.90;;;;;;2497858;23;20007;-72
2023/08/31 04:07:16;;;;;;;6.82;6.20;;;14.00;99.90;;;;;;2498132;23;20004;-72
2023/08/31 04:08:17;;;;;;;6.20;5.68;;;14.00;99.90;;;;;;2497455;23;20428;-71
2023/08/31 04:09:18;;;;;;;7.20;6.50;;;14.00;99.90;;;;;;2498715;23;20003;-72
2023/08/31 04:10:19;;;;;;;7.90;6.85;;;14.00;99.90;;;;;;2497178;23;20007;-72
2023/08/31 04:11:19;;;;;;;9.57;6.35;;;14.00;99.90;;;;;;2497500;23;20007;-72
2023/08/31 04:12:20;;;;;;;8.77;7.18;;;14.00;99.90;;;;;;2496438;23;20012;-72
2023/08/31 04:13:21;;;;;;;11.15;7.28;;;14.00;99.90;;;;;;2496649;23;20063;-72
2023/08/31 04:14:21;;;;;;;8.23;7.43;;;14.00;99.90;;;;;;2497594;23;20110;-71
2023/08/31 04:15:22;;;;;;;10.43;7.30;;;14.00;99.90;;;;;;2496384;23;20007;-72
2023/08/31 04:16:22;;;;;;;9.77;7.80;;;14.00;99.90;;;;;;2496717;23;20495;-72
2023/08/31 04:17:23;;;;;;;8.95;8.05;;;14.00;99.90;;;;;;2496239;23;20038;-72
2023/08/31 04:18:23;;;;;;;12.02;7.45;;;14.00;99.90;;;;;;2496221;23;20012;-72
2023/08/31 04:19:24;;;;;;;8.48;7.57;;;14.00;99.90;;;;;;2496054;23;20074;-72
2023/08/31 04:20:25;;;;;;;9.38;8.05;;;13.90;99.90;;;;;;2497211;23;20620;-74
2023/08/31 04:21:25;;;;;;;12.82;9.15;;;13.90;99.90;;;;;;2496933;23;20034;-72
2023/08/31 04:22:26;;;;;;;10.65;8.75;;;13.90;99.90;;;;;;2497717;23;20031;-72
2023/08/31 04:23:27;;;;;;;8.77;7.82;;;13.90;99.90;;;;;;2497234;23;20066;-72
2023/08/31 04:24:27;;;;;;;10.98;9.25;;;13.90;99.90;;;;;;2497157;23;20007;-72
2023/08/31 04:25:31;;;;;;;10.55;9.55;;;13.90;99.90;;;;;;2498255;23;20003;-72
2023/08/31 04:26:31;;;;;;;11.50;10.32;;;13.90;99.90;;;;;;2498479;23;20011;-72
2023/08/31 04:27:32;;;;;;;10.50;9.20;;;13.90;99.90;;;;;;2494943;23;20032;-72
2023/08/31 04:28:32;;;;;;;10.57;9.57;;;13.90;99.90;;;;;;2497216;23;20007;-73
2023/08/31 04:29:33;;;;;;;15.75;10.50;;;13.90;99.90;;;;;;2497451;23;20035;-74
2023/08/31 04:30:33;;;;;;;12.23;11.02;;;13.90;99.90;;;;;;2497565;23;20007;-73
2023/08/31 04:31:34;;;;;;;12.40;10.02;;;13.90;99.90;;;;;;2498067;23;20042;-72
2023/08/31 04:32:35;;;;;;;14.60;11.40;;;13.90;99.90;;;;;;2496202;23;20030;-72
2023/08/31 04:33:38;;;;;;;13.73;12.43;;;13.90;99.90;;;;;;2498057;23;20047;-71
2023/08/31 04:34:38;;;;;;;12.05;9.35;;;13.90;99.90;;;;;;2496757;23;20007;-73
2023/08/31 04:35:39;;;;;;;11.35;10.13;;;13.90;99.90;;;;;;2495969;23;20030;-74
2023/08/31 04:36:40;;;;;;;13.98;11.52;;;13.90;99.90;;;;;;2497893;23;20003;-74
2023/08/31 04:37:40;;;;;;;11.35;10.23;;;13.90;99.90;;;;;;2497431;23;20015;-74
2023/08/31 04:38:41;;;;;;;13.77;11.70;;;13.90;99.90;;;;;;2497635;23;20027;-74
2023/08/31 04:39:41;;;;;;;11.60;10.25;;;13.90;99.90;;;;;;2496841;23;20035;-74
2023/08/31 04:40:43;;;;;;;13.15;11.77;;;13.90;99.90;;;;;;2497605;23;20310;-74
2023/08/31 04:41:43;;;;;;;10.85;9.18;;;14.00;99.90;;;;;;2498238;23;20011;-74
2023/08/31 04:42:44;;;;;;;10.95;9.85;;;14.00;99.90;;;;;;2497209;23;20003;-74
2023/08/31 04:43:47;;;;;;;11.68;10.48;;;14.00;99.90;;;;;;2484460;23;20455;-74
2023/08/31 04:44:48;;;;;;;11.68;10.57;;;14.00;99.90;;;;;;2485438;23;20539;-74
2023/08/31 04:45:48;;;;;;;13.30;10.85;;;14.00;99.90;;;;;;2496704;23;20007;-74
2023/08/31 04:46:49;;;;;;;12.20;10.75;;;14.00;99.90;;;;;;2497555;23;19999;-74
2023/08/31 04:47:51;;;;;;;11.00;9.90;;;14.00;99.90;;;;;;2496308;23;20004;-72
2023/08/31 04:48:52;;;;;;;14.35;11.68;;;14.00;99.90;;;;;;2495617;23;20432;-72
2023/08/31 04:49:52;;;;;;;11.40;10.40;;;14.00;99.90;;;;;;2496048;23;20716;-72
2023/08/31 04:50:57;;;;;;;15.20;10.50;;;14.00;99.90;;;;;;2495974;23;20007;-72
2023/08/31 04:51:57;;;;;;;10.77;9.77;;;14.00;99.90;;;;;;2496082;23;20066;-72
2023/08/31 04:52:58;;;;;;;13.07;11.73;;;13.90;99.90;;;;;;2496255;23;20021;-72
2023/08/31 04:53:59;;;;;;;12.43;9.88;;;14.00;99.90;;;;;;2498056;23;20408;-72
2023/08/31 04:55:07;;;;;;;12.68;11.23;;;14.00;99.90;;;;;;2496124;23;20026;-72
2023/08/31 04:56:07;;;;;;;12.15;11.00;;;14.00;99.90;;;;;;2495326;23;20035;-72
2023/08/31 04:57:08;;;;;;;14.85;11.73;;;13.90;99.90;;;;;;2496353;23;20087;-72
2023/08/31 04:58:08;;;;;;;12.25;11.05;;;13.90;99.90;;;;;;2496571;23;20006;-73
2023/08/31 04:59:09;;;;;;;12.60;11.35;;;14.00;99.90;;;;;;2498026;23;20010;-72
2023/08/31 05:00:11;;;;;;;12.95;11.75;;;14.00;99.90;;;;;;2497412;23;20095;-72
2023/08/31 05:01:12;;;;;;;13.07;11.43;;;14.00;99.90;;;;;;2495380;23;20028;-72
2023/08/31 05:02:12;;;;;;;12.88;11.60;;;14.00;99.90;;;;;;2497350;23;20077;-72
2023/08/31 05:03:13;;;;;;;13.18;11.77;;;14.00;99.90;;;;;;2498530;23;20055;-72
2023/08/31 05:04:14;;;;;;;14.77;11.43;;;14.00;99.90;;;;;;2498606;23;20055;-72
2023/08/31 05:05:15;;;;;;;10.90;9.82;;;14.00;99.90;;;;;;2498185;23;20500;-72
2023/08/31 05:06:15;;;;;;;11.13;10.02;;;13.90;99.90;;;;;;2498867;23;20098;-72
2023/08/31 05:07:16;;;;;;;13.68;11.02;;;14.00;99.90;;;;;;2497252;23;20090;-72
2023/08/31 05:08:16;;;;;;;10.10;8.75;;;14.00;99.90;;;;;;2497996;23;20008;-72
2023/08/31 05:09:18;;;;;;;10.63;9.05;;;14.00;99.90;;;;;;2485614;23;20011;-72
2023/08/31 05:10:19;;;;;;;11.93;10.77;;;14.00;99.90;;;;;;2485891;23;20029;-72
2023/08/31 05:11:20;;;;;;;12.07;10.18;;;13.90;99.90;;;;;;2483772;23;20031;-72
2023/08/31 05:12:20;;;;;;;10.90;9.90;;;14.00;99.90;;;;;;2497844;23;20440;-72
2023/08/31 05:13:21;;;;;;;11.85;10.60;;;13.90;99.90;;;;;;2497491;23;20022;-73
2023/08/31 05:14:21;;;;;;;12.15;10.95;;;14.00;99.90;;;;;;2497983;23;20035;-73
2023/08/31 05:15:22;;;;;;;11.50;10.40;;;14.00;99.90;;;;;;2497802;23;20007;-72
2023/08/31 05:16:23;;;;;;;11.07;9.95;;;14.00;99.90;;;;;;2497345;23;20191;-72
2023/08/31 05:17:24;;;;;;;8.70;7.85;;;14.00;99.90;;;;;;2497223;23;20007;-72
2023/08/31 05:18:24;;;;;;;9.90;8.75;;;14.00;99.90;;;;;;2497567;23;20007;-73
2023/08/31 05:19:25;;;;;;;9.85;8.80;;;14.00;99.90;;;;;;2497706;23;20138;-73
2023/08/31 05:20:25;;;;;;;10.35;9.35;;;13.90;99.90;;;;;;2498364;23;20019;-72
2023/08/31 05:21:26;;;;;;;10.48;9.48;;;13.90;99.90;;;;;;2496067;23;20010;-72